Time;durP1;ratioP1;P1;durP2;ratioP2;P2;SDS_P1;SDS_P2;PMS_P1;PMS_P2;Temp;Humidity;BMP_temperature;BMP_pressure;BME280_temperature;BME280_humidity;BME280_pressure;Samples;Min_cycle;Max_cycle;Signal;HPM_P1;HPM_P2
2023/11/20 00:02:23;;;;;;;23.15;14.32;;;5.60;99.90;;;;;;5062510;28;20083;-72
2023/11/20 00:04:49;;;;;;;25.33;14.20;;;;;;;;;;5081782;28;20198;-71
2023/11/20 00:07:15;;;;;;;25.05;13.70;;;5.90;99.90;;;;;;5072844;28;20020;-71
2023/11/20 00:09:41;;;;;;;25.70;15.30;;;;;;;;;;5062585;28;20308;-71
2023/11/20 00:12:08;;;;;;;24.38;14.35;;;5.30;99.90;;;;;;5063075;28;20071;-71
2023/11/20 00:14:34;;;;;;;26.67;14.88;;;;;;;;;;5062435;28;20032;-71
2023/11/20 00:17:00;;;;;;;31.42;17.27;;;4.90;99.90;;;;;;5062279;28;20027;-71
2023/11/20 00:19:27;;;;;;;29.40;18.17;;;5.00;99.90;;;;;;5062411;28;20040;-71
2023/11/20 00:21:52;;;;;;;28.98;17.45;;;4.90;99.90;;;;;;5062266;28;20025;-72
2023/11/20 00:24:18;;;;;;;29.25;17.55;;;;;;;;;;5062129;28;20075;-71
2023/11/20 00:26:44;;;;;;;28.35;15.40;;;4.70;99.90;;;;;;5061886;28;20061;-71
2023/11/20 00:29:10;;;;;;;26.70;15.73;;;5.30;99.90;;;;;;5062225;28;20091;-71
2023/11/20 00:31:35;;;;;;;24.75;14.18;;;5.00;99.90;;;;;;5062089;28;20367;-72
2023/11/20 00:34:01;;;;;;;29.45;16.08;;;4.60;99.90;;;;;;5078654;28;20021;-71
2023/11/20 00:36:27;;;;;;;26.77;15.52;;;;;;;;;;5082088;28;20024;-72
2023/11/20 00:38:54;;;;;;;26.27;14.80;;;;;;;;;;5082146;28;20024;-71
2023/11/20 00:41:19;;;;;;;24.40;14.45;;;4.60;99.90;;;;;;5081831;28;20016;-71
2023/11/20 00:43:45;;;;;;;22.25;13.77;;;;;;;;;;5080587;28;20025;-72
2023/11/20 00:46:13;;;;;;;30.20;17.67;;;5.30;99.90;;;;;;5081795;28;20346;-71
2023/11/20 00:48:39;;;;;;;26.98;16.40;;;;;;;;;;5081734;28;20020;-72
2023/11/20 00:51:05;;;;;;;26.20;15.45;;;;;;;;;;5072247;28;20068;-71
2023/11/20 00:53:31;;;;;;;29.90;16.27;;;5.10;99.90;;;;;;5081592;28;20098;-72
2023/11/20 00:55:57;;;;;;;26.50;14.38;;;5.10;99.90;;;;;;5081556;28;20061;-72
2023/11/20 00:58:23;;;;;;;26.30;13.98;;;4.80;99.90;;;;;;5081578;28;20089;-73
2023/11/20 01:00:51;;;;;;;25.08;14.18;;;;;;;;;;5077889;28;20375;-72
2023/11/20 01:03:16;;;;;;;26.35;14.70;;;4.90;99.90;;;;;;5067707;28;20371;-72
2023/11/20 01:05:42;;;;;;;21.15;12.88;;;4.80;99.90;;;;;;5080348;28;20054;-72
2023/11/20 01:08:09;;;;;;;24.58;13.30;;;4.80;99.90;;;;;;5080896;28;20025;-72
2023/11/20 01:10:35;;;;;;;23.77;13.63;;;;;;;;;;5081108;28;20033;-73
2023/11/20 01:13:01;;;;;;;20.60;13.48;;;;;;;;;;5081001;28;20075;-73
2023/11/20 01:15:29;;;;;;;25.77;14.43;;;4.70;99.90;;;;;;5080858;28;20028;-73
2023/11/20 01:17:55;;;;;;;22.15;12.43;;;;;;;;;;5081170;28;20033;-72
2023/11/20 01:20:21;;;;;;;21.98;13.18;;;;;;;;;;5077839;28;20031;-72
2023/11/20 01:22:47;;;;;;;23.67;12.93;;;4.60;99.90;;;;;;5081482;28;20040;-78
2023/11/20 01:25:13;;;;;;;27.90;14.80;;;4.60;99.90;;;;;;5077304;28;20076;-72
2023/11/20 01:27:39;;;;;;;22.13;13.10;;;4.60;99.90;;;;;;5079669;28;20036;-77
2023/11/20 01:30:08;;;;;;;28.52;15.98;;;5.10;99.90;;;;;;5082710;28;20032;-75
2023/11/20 01:32:34;;;;;;;25.98;14.98;;;4.80;99.90;;;;;;5080800;28;20024;-73
2023/11/20 01:35:00;;;;;;;21.70;14.23;;;;;;;;;;5081011;28;20025;-72
2023/11/20 01:37:26;;;;;;;22.00;13.52;;;;;;;;;;5080087;28;20364;-73
2023/11/20 01:39:52;;;;;;;22.05;13.00;;;4.70;99.90;;;;;;5078505;28;20340;-71
2023/11/20 01:42:19;;;;;;;25.25;14.60;;;;;;;;;;5080565;28;20033;-71
2023/11/20 01:44:45;;;;;;;22.17;13.02;;;;;;;;;;5080721;28;20027;-72
2023/11/20 01:47:11;;;;;;;23.15;13.38;;;4.90;99.90;;;;;;5080862;28;20302;-71
2023/11/20 01:49:39;;;;;;;20.85;12.50;;;5.00;99.90;;;;;;5080522;28;20142;-71
2023/11/20 01:52:06;;;;;;;21.40;12.75;;;4.70;99.90;;;;;;5080320;28;20426;-71
2023/11/20 01:54:32;;;;;;;22.63;13.10;;;4.80;99.90;;;;;;5079106;28;20316;-71
2023/11/20 01:57:00;;;;;;;28.27;12.40;;;4.70;99.90;;;;;;5080607;28;20017;-71
2023/11/20 01:59:27;;;;;;;23.70;12.98;;;4.80;99.90;;;;;;5080424;28;20378;-71
2023/11/20 02:01:54;;;;;;;22.05;12.02;;;4.60;99.90;;;;;;5071540;28;20025;-71
2023/11/20 02:04:22;;;;;;;18.85;11.55;;;4.70;99.90;;;;;;5060505;28;20029;-72
2023/11/20 02:06:49;;;;;;;28.48;12.82;;;4.70;99.90;;;;;;5060581;28;20032;-71
2023/11/20 02:09:16;;;;;;;22.85;11.60;;;4.50;99.90;;;;;;5059067;28;20288;-71
2023/11/20 02:11:44;;;;;;;23.00;12.02;;;4.50;99.90;;;;;;5060055;28;20069;-72
2023/11/20 02:14:11;;;;;;;21.33;12.75;;;4.40;99.90;;;;;;5060084;28;20096;-71
2023/11/20 02:16:36;;;;;;;19.48;12.27;;;4.50;99.90;;;;;;5059722;28;20320;-71
2023/11/20 02:19:15;;;;;;;25.55;11.70;;;4.50;99.90;;;;;;5058799;28;20035;-73
2023/11/20 02:21:42;;;;;;;21.35;12.48;;;4.40;99.90;;;;;;5060201;28;20028;-71
2023/11/20 02:24:09;;;;;;;21.80;12.75;;;4.30;99.90;;;;;;5059964;28;20095;-71
2023/11/20 02:26:53;;;;;;;17.42;11.40;;;4.40;99.90;;;;;;5059782;28;20052;-71
2023/11/20 02:29:54;;;;;;;24.20;12.68;;;4.30;99.90;;;;;;5058816;28;20092;-70
2023/11/20 02:32:21;;;;;;;21.83;12.93;;;4.50;99.90;;;;;;5058126;28;20060;-71
2023/11/20 02:34:47;;;;;;;20.50;10.90;;;4.30;99.90;;;;;;5060050;28;20046;-71
2023/11/20 02:37:13;;;;;;;21.85;12.45;;;4.20;99.90;;;;;;5060182;28;20391;-71
2023/11/20 02:39:39;;;;;;;20.48;11.88;;;;;;;;;;5060546;28;20031;-71
2023/11/20 02:42:06;;;;;;;22.73;12.23;;;;;;;;;;5060176;28;20016;-71
2023/11/20 02:44:36;;;;;;;21.83;11.95;;;4.10;99.90;;;;;;5059949;28;20351;-72
2023/11/20 02:47:02;;;;;;;22.98;12.07;;;;;;;;;;5059997;28;20025;-72
2023/11/20 02:49:27;;;;;;;26.75;11.43;;;4.60;99.90;;;;;;5060158;28;20111;-71
2023/11/20 02:51:53;;;;;;;17.30;10.70;;;4.20;99.90;;;;;;5059879;28;20098;-71
2023/11/20 02:54:20;;;;;;;25.70;13.30;;;4.00;99.90;;;;;;5060018;28;20029;-71
2023/11/20 02:56:46;;;;;;;22.60;13.43;;;4.10;99.90;;;;;;5059993;28;20021;-72
2023/11/20 02:59:11;;;;;;;24.25;13.55;;;4.10;99.90;;;;;;5064040;28;20124;-72
2023/11/20 03:01:37;;;;;;;28.02;15.48;;;;;;;;;;5079887;28;20032;-73
2023/11/20 03:04:04;;;;;;;26.70;14.93;;;;;;;;;;5079889;28;20324;-71
2023/11/20 03:06:30;;;;;;;28.17;16.77;;;4.30;99.90;;;;;;5079746;28;20027;-72
2023/11/20 03:08:56;;;;;;;30.42;17.05;;;;;;;;;;5076330;28;20025;-71
2023/11/20 03:11:21;;;;;;;30.45;17.52;;;4.30;99.90;;;;;;5079866;28;20095;-71
2023/11/20 03:13:47;;;;;;;31.75;18.85;;;;;;;;;;5079699;28;20327;-71
2023/11/20 03:16:13;;;;;;;29.83;18.10;;;;;;;;;;5079717;28;20587;-71
2023/11/20 03:18:40;;;;;;;32.42;17.40;;;4.40;99.90;;;;;;5079759;28;20029;-70
2023/11/20 03:21:06;;;;;;;32.53;18.83;;;;;;;;;;5078631;28;20328;-70
2023/11/20 03:23:32;;;;;;;32.78;18.25;;;4.10;99.90;;;;;;5079798;28;20332;-71
2023/11/20 03:25:58;;;;;;;34.15;17.73;;;;;;;;;;5079654;28;20414;-71
2023/11/20 03:28:24;;;;;;;32.90;17.67;;;;;;;;;;5081151;28;20375;-71
2023/11/20 03:30:49;;;;;;;31.25;16.25;;;4.00;99.90;;;;;;5083173;28;20040;-71
2023/11/20 03:33:15;;;;;;;30.52;16.50;;;4.10;99.90;;;;;;5083380;28;20016;-71
2023/11/20 03:35:41;;;;;;;30.73;16.10;;;;;;;;;;5081696;28;20020;-71
2023/11/20 03:38:07;;;;;;;29.63;16.10;;;;;;;;;;5082966;28;20021;-71
2023/11/20 03:40:33;;;;;;;25.25;15.48;;;;;;;;;;5083135;28;20056;-70
2023/11/20 03:42:59;;;;;;;25.63;16.20;;;;;;;;;;5083106;28;20020;-71
2023/11/20 03:45:25;;;;;;;31.48;15.05;;;;;;;;;;5082738;28;20209;-71
2023/11/20 03:47:51;;;;;;;27.83;16.58;;;;;;;;;;5082900;28;20066;-71
2023/11/20 03:50:17;;;;;;;27.42;15.75;;;4.00;99.90;;;;;;5082581;28;20024;-71
2023/11/20 03:52:44;;;;;;;24.35;14.90;;;4.00;99.90;;;;;;5082858;28;20029;-70
2023/11/20 03:55:10;;;;;;;25.00;13.60;;;3.90;99.90;;;;;;5082822;28;20033;-71
2023/11/20 03:57:36;;;;;;;27.35;14.77;;;;;;;;;;5082657;28;20293;-71
2023/11/20 04:00:01;;;;;;;27.35;14.68;;;3.90;99.90;;;;;;5082785;28;20088;-71
2023/11/20 04:02:27;;;;;;;20.45;13.32;;;3.90;99.90;;;;;;5082914;28;20100;-71
2023/11/20 04:04:53;;;;;;;25.67;13.95;;;3.90;99.90;;;;;;5082644;28;20083;-71
2023/11/20 04:07:19;;;;;;;20.25;11.68;;;;;;;;;;5082779;28;20055;-71
2023/11/20 04:09:45;;;;;;;22.77;12.10;;;;;;;;;;5082753;28;20048;-70
2023/11/20 04:12:11;;;;;;;23.15;12.50;;;3.90;99.90;;;;;;5082567;28;20077;-70
2023/11/20 04:14:37;;;;;;;25.40;12.45;;;;;;;;;;5081147;28;20376;-70
2023/11/20 04:17:02;;;;;;;23.90;12.77;;;4.20;99.90;;;;;;5082312;28;20117;-72
2023/11/20 04:19:28;;;;;;;21.42;12.40;;;4.30;99.90;;;;;;5082232;28;20036;-71
2023/11/20 04:21:54;;;;;;;21.25;12.20;;;;;;;;;;5082093;28;20330;-70
2023/11/20 04:24:20;;;;;;;25.45;13.23;;;;;;;;;;5081946;28;20024;-70
2023/11/20 04:26:46;;;;;;;25.88;13.30;;;;;;;;;;5082003;28;20049;-71
2023/11/20 04:29:13;;;;;;;24.08;12.25;;;4.50;99.90;;;;;;5081970;28;20020;-71
2023/11/20 04:31:39;;;;;;;24.08;11.80;;;;;;;;;;5080595;28;20048;-70
2023/11/20 04:34:05;;;;;;;18.70;10.88;;;;;;;;;;5081808;28;20063;-70
2023/11/20 04:36:31;;;;;;;22.92;12.93;;;;;;;;;;5080507;28;20201;-71
2023/11/20 04:38:57;;;;;;;22.88;12.07;;;4.60;99.90;;;;;;5081312;28;20044;-71
2023/11/20 04:41:23;;;;;;;21.30;12.43;;;;;;;;;;5081877;28;20031;-71
2023/11/20 04:43:50;;;;;;;21.27;12.00;;;;;;;;;;5081668;28;20044;-71
2023/11/20 04:46:16;;;;;;;23.52;13.98;;;;;;;;;;5081724;28;20185;-71
2023/11/20 04:48:42;;;;;;;26.27;13.82;;;4.70;99.90;;;;;;5081591;28;20027;-70
2023/11/20 04:51:08;;;;;;;28.85;14.30;;;5.00;99.90;;;;;;5081466;28;20064;-70
2023/11/20 04:53:33;;;;;;;27.00;13.05;;;4.50;99.90;;;;;;5081678;28;20291;-71
2023/11/20 04:55:59;;;;;;;25.40;14.43;;;;;;;;;;5081418;28;20032;-70
2023/11/20 04:58:25;;;;;;;31.83;17.30;;;;;;;;;;5080056;28;20159;-71
2023/11/20 05:00:51;;;;;;;28.25;16.50;;;4.40;99.90;;;;;;5081253;28;20387;-70
2023/11/20 05:03:18;;;;;;;30.10;16.80;;;4.70;99.90;;;;;;5081284;28;20024;-70
2023/11/20 05:05:44;;;;;;;25.88;15.93;;;;;;;;;;5081273;28;20031;-71
2023/11/20 05:08:11;;;;;;;29.50;16.88;;;4.10;99.90;;;;;;5081186;28;20025;-71
2023/11/20 05:10:37;;;;;;;34.15;16.73;;;;;;;;;;5078002;28;20044;-71
2023/11/20 05:13:02;;;;;;;31.35;17.25;;;3.90;99.90;;;;;;5080947;28;20119;-70
2023/11/20 05:15:28;;;;;;;29.17;14.95;;;;;;;;;;5081242;28;20048;-71
2023/11/20 05:17:54;;;;;;;29.88;15.20;;;;;;;;;;5081165;28;20090;-70
2023/11/20 05:20:20;;;;;;;26.80;14.35;;;4.30;99.90;;;;;;5081130;28;20028;-70
2023/11/20 05:22:46;;;;;;;33.40;17.95;;;;;;;;;;5080903;28;20035;-72
2023/11/20 05:25:12;;;;;;;31.95;15.43;;;;;;;;;;5081005;28;20044;-70
2023/11/20 05:27:38;;;;;;;27.23;15.25;;;3.90;99.90;;;;;;5080942;28;20035;-71
2023/11/20 05:30:05;;;;;;;30.27;15.15;;;3.80;99.90;;;;;;5080864;28;20284;-70
2023/11/20 05:32:31;;;;;;;23.27;13.38;;;;;;;;;;5081014;28;20206;-70
2023/11/20 05:34:57;;;;;;;28.02;14.05;;;;;;;;;;5080461;28;20052;-71
2023/11/20 05:37:24;;;;;;;29.75;14.55;;;4.00;99.90;;;;;;5078845;28;20028;-71
2023/11/20 05:39:50;;;;;;;29.10;15.10;;;;;;;;;;5080273;28;20020;-70
2023/11/20 05:42:16;;;;;;;31.42;16.23;;;;;;;;;;5079809;28;20036;-71
2023/11/20 05:44:43;;;;;;;27.13;14.75;;;;;;;;;;5078667;28;20039;-72
2023/11/20 05:47:08;;;;;;;26.92;14.43;;;4.00;99.90;;;;;;5078986;28;20280;-70
2023/11/20 05:49:34;;;;;;;34.17;17.80;;;;;;;;;;5080626;28;20032;-70
2023/11/20 05:52:00;;;;;;;29.38;14.90;;;4.30;99.90;;;;;;5078652;28;20036;-71
2023/11/20 05:54:25;;;;;;;30.02;15.48;;;3.80;99.90;;;;;;5073698;28;20013;-71
2023/11/20 05:56:51;;;;;;;27.27;14.27;;;3.80;99.90;;;;;;5073772;28;20096;-71
2023/11/20 05:59:17;;;;;;;29.13;14.23;;;;;;;;;;5080519;28;20032;-73
2023/11/20 06:01:43;;;;;;;24.60;13.38;;;;;;;;;;5079181;28;20056;-71
2023/11/20 06:04:09;;;;;;;29.00;17.27;;;;;;;;;;5080383;28;20416;-71
2023/11/20 06:06:36;;;;;;;41.38;20.42;;;3.90;99.90;;;;;;5080293;28;20023;-71
2023/11/20 06:09:04;;;;;;;43.75;19.60;;;4.00;99.90;;;;;;5080407;28;20079;-71
2023/11/20 06:11:33;;;;;;;37.30;18.73;;;3.90;99.90;;;;;;5080011;28;20323;-72
2023/11/20 06:13:59;;;;;;;35.42;18.80;;;;;;;;;;5062935;28;20641;-73
2023/11/20 06:16:26;;;;;;;38.50;20.30;;;;;;;;;;5080109;28;20077;-71
2023/11/20 06:18:51;;;;;;;35.45;19.08;;;3.70;99.90;;;;;;5080278;28;20127;-71
2023/11/20 06:21:17;;;;;;;34.35;18.77;;;3.60;99.90;;;;;;5080080;28;20024;-70
2023/11/20 06:23:44;;;;;;;30.17;16.95;;;;;;;;;;5080399;28;20031;-71
2023/11/20 06:26:10;;;;;;;30.85;15.57;;;;;;;;;;5079876;28;20274;-72
2023/11/20 06:28:36;;;;;;;25.20;13.70;;;3.60;99.90;;;;;;5080105;28;20025;-71
2023/11/20 06:31:03;;;;;;;21.25;12.88;;;3.60;99.90;;;;;;5080322;28;20032;-72
2023/11/20 06:33:29;;;;;;;27.73;14.10;;;;;;;;;;5080173;28;20051;-72
2023/11/20 06:35:54;;;;;;;31.88;14.02;;;3.80;99.90;;;;;;5079878;28;20062;-72
2023/11/20 06:38:21;;;;;;;33.70;14.73;;;3.90;99.90;;;;;;5080358;28;20092;-71
2023/11/20 06:40:46;;;;;;;29.95;15.00;;;4.00;99.90;;;;;;5080230;28;20074;-70
2023/11/20 06:43:13;;;;;;;31.17;12.73;;;;;;;;;;5080225;28;20025;-72
2023/11/20 06:45:39;;;;;;;23.80;12.10;;;;;;;;;;5080140;28;20032;-71
2023/11/20 06:48:06;;;;;;;27.08;12.82;;;4.00;99.90;;;;;;5078973;28;20021;-71
2023/11/20 06:50:32;;;;;;;24.42;12.70;;;4.10;99.90;;;;;;5080081;28;20216;-71
2023/11/20 06:52:58;;;;;;;27.15;13.40;;;4.10;99.90;;;;;;5080342;28;20292;-71
2023/11/20 06:55:25;;;;;;;27.20;12.88;;;;;;;;;;5080390;28;20028;-71
2023/11/20 06:57:50;;;;;;;25.15;12.02;;;4.80;99.90;;;;;;5079977;28;20027;-71
2023/11/20 07:00:18;;;;;;;26.25;12.80;;;4.70;99.90;;;;;;5080058;28;20032;-71
2023/11/20 07:02:44;;;;;;;24.67;12.25;;;4.90;99.90;;;;;;5081854;28;20285;-70
2023/11/20 07:05:17;;;;;;;27.88;14.35;;;5.10;99.90;;;;;;5082432;28;20016;-73
2023/11/20 07:07:51;;;;;;;29.50;15.85;;;5.20;99.90;;;;;;5083838;28;20030;-71
2023/11/20 07:10:25;;;;;;;27.65;15.88;;;5.40;99.90;;;;;;5083935;28;20028;-71
2023/11/20 07:12:54;;;;;;;39.17;20.73;;;5.60;99.90;;;;;;5083781;28;20564;-71
2023/11/20 07:15:21;;;;;;;36.25;19.73;;;5.70;99.90;;;;;;5083827;28;20029;-71
2023/11/20 07:17:47;;;;;;;35.58;19.42;;;5.90;99.90;;;;;;5082698;28;20017;-71
2023/11/20 07:20:13;;;;;;;31.90;19.88;;;;;;;;;;5083637;28;20020;-71
2023/11/20 07:22:39;;;;;;;33.13;20.00;;;;;;;;;;5083778;28;20052;-70
2023/11/20 07:25:05;;;;;;;43.38;25.23;;;6.30;99.90;;;;;;5083595;28;20112;-71
2023/11/20 07:27:31;;;;;;;43.63;25.40;;;6.30;99.90;;;;;;5083816;28;20255;-74
2023/11/20 07:29:57;;;;;;;49.78;28.35;;;6.30;99.90;;;;;;5083746;28;20028;-71
2023/11/20 07:32:23;;;;;;;45.70;26.65;;;;;;;;;;5078084;28;20044;-71
2023/11/20 07:34:49;;;;;;;42.72;24.77;;;;;;;;;;5081983;28;20025;-70
2023/11/20 07:37:16;;;;;;;54.85;28.80;;;;;;;;;;5083079;28;20020;-71
2023/11/20 07:39:42;;;;;;;48.13;27.80;;;6.40;99.90;;;;;;5083397;28;20095;-71
2023/11/20 07:42:08;;;;;;;51.33;29.50;;;6.50;99.90;;;;;;5083396;28;20012;-70
2023/11/20 07:44:35;;;;;;;48.53;27.60;;;;;;;;;;5083017;28;20044;-71
2023/11/20 07:47:00;;;;;;;51.90;28.83;;;6.80;99.90;;;;;;5082916;28;20344;-71
2023/11/20 07:49:31;;;;;;;58.95;29.23;;;7.30;99.90;;;;;;5082985;28;20025;-70
2023/11/20 07:51:57;;;;;;;44.80;27.77;;;7.10;99.90;;;;;;5083111;28;20234;-71
2023/11/20 07:54:22;;;;;;;43.85;26.08;;;7.00;99.90;;;;;;5082997;28;20016;-70
2023/11/20 07:56:48;;;;;;;50.03;27.55;;;7.00;99.90;;;;;;5082995;28;20273;-71
2023/11/20 07:59:14;;;;;;;38.22;23.38;;;7.50;99.90;;;;;;5083063;28;20024;-70
2023/11/20 08:01:40;;;;;;;54.45;25.25;;;;;;;;;;5077222;28;20029;-70
2023/11/20 08:04:06;;;;;;;39.47;24.55;;;;;;;;;;5081146;28;20403;-71
2023/11/20 08:06:32;;;;;;;29.98;18.48;;;7.30;99.90;;;;;;5082312;28;20025;-71
2023/11/20 08:08:58;;;;;;;26.38;17.17;;;7.40;99.90;;;;;;5082322;28;20017;-70
2023/11/20 08:11:25;;;;;;;27.48;17.15;;;7.60;99.90;;;;;;5082093;28;20029;-71
2023/11/20 08:13:51;;;;;;;22.27;13.45;;;;;;;;;;5074816;28;20028;-70
2023/11/20 08:16:16;;;;;;;26.25;16.02;;;7.80;99.90;;;;;;5082377;28;20086;-71
2023/11/20 08:18:42;;;;;;;29.58;18.17;;;8.10;99.90;;;;;;5082411;28;20079;-71
2023/11/20 08:21:08;;;;;;;30.95;18.45;;;;;;;;;;5082334;28;20020;-71
2023/11/20 08:23:34;;;;;;;32.30;17.63;;;;;;;;;;5082348;28;20062;-70
2023/11/20 08:26:00;;;;;;;27.73;14.82;;;;;;;;;;5081823;28;20060;-71
2023/11/20 08:28:26;;;;;;;25.02;14.65;;;;;;;;;;5082073;28;20037;-70
2023/11/20 08:30:53;;;;;;;21.67;12.65;;;;;;;;;;5082006;28;20036;-70
2023/11/20 08:33:19;;;;;;;14.57;9.77;;;;;;;;;;5082127;28;20032;-71
2023/11/20 08:35:45;;;;;;;13.95;7.65;;;;;;;;;;5082012;28;20527;-71
2023/11/20 08:38:12;;;;;;;9.43;5.30;;;8.60;99.90;;;;;;5081866;28;20032;-70
2023/11/20 08:40:37;;;;;;;10.82;4.90;;;8.70;99.90;;;;;;5081952;28;20025;-70
2023/11/20 08:43:05;;;;;;;7.85;4.57;;;8.80;99.90;;;;;;5081883;28;20211;-70
2023/11/20 08:45:31;;;;;;;6.95;4.07;;;;;;;;;;5081682;28;20031;-71
2023/11/20 08:47:58;;;;;;;10.32;3.70;;;;;;;;;;5081488;28;20040;-71
2023/11/20 08:50:25;;;;;;;5.57;3.78;;;8.90;99.90;;;;;;5081112;28;20012;-71
2023/11/20 08:52:52;;;;;;;8.65;4.30;;;9.20;99.90;;;;;;5079277;28;20036;-71
2023/11/20 08:55:18;;;;;;;6.57;4.30;;;8.90;99.90;;;;;;5077697;28;20031;-71
2023/11/20 08:57:44;;;;;;;12.73;5.45;;;;;;;;;;5081289;28;20020;-71
2023/11/20 09:00:14;;;;;;;20.80;10.88;;;8.90;99.90;;;;;;5081257;28;20374;-70
2023/11/20 09:02:46;;;;;;;28.15;16.15;;;9.10;99.90;;;;;;5081237;28;20016;-70
2023/11/20 09:05:13;;;;;;;29.65;18.17;;;8.90;99.90;;;;;;5081285;28;20039;-71
2023/11/20 09:07:40;;;;;;;27.95;19.00;;;9.10;99.90;;;;;;5081203;28;20024;-71
2023/11/20 09:10:08;;;;;;;31.98;18.55;;;9.30;99.90;;;;;;5079976;28;20028;-72
2023/11/20 09:12:34;;;;;;;30.83;19.00;;;;;;;;;;5081076;28;20032;-70
2023/11/20 09:15:00;;;;;;;30.50;19.08;;;9.40;99.90;;;;;;5081139;28;20021;-71
2023/11/20 09:17:26;;;;;;;28.67;17.35;;;;;;;;;;5079809;28;20032;-71
2023/11/20 09:19:52;;;;;;;27.23;13.65;;;9.30;99.90;;;;;;5081531;28;20013;-70
2023/11/20 09:22:17;;;;;;;27.02;15.82;;;9.60;99.90;;;;;;5081027;28;20047;-71
2023/11/20 09:24:43;;;;;;;28.88;16.83;;;9.40;99.90;;;;;;5080991;28;20244;-71
2023/11/20 09:27:10;;;;;;;27.92;18.65;;;;;;;;;;5080126;28;20370;-71
2023/11/20 09:29:37;;;;;;;34.90;17.80;;;9.50;99.90;;;;;;5081144;28;20017;-71
2023/11/20 09:32:03;;;;;;;23.20;13.90;;;;;;;;;;5080743;28;20047;-69
2023/11/20 09:34:29;;;;;;;23.17;13.55;;;9.70;99.90;;;;;;5080596;28;20319;-70
2023/11/20 09:36:56;;;;;;;19.60;9.45;;;;;;;;;;5080781;28;20024;-73
2023/11/20 09:39:21;;;;;;;27.08;13.93;;;10.10;99.90;;;;;;5080700;28;20017;-72
2023/11/20 09:41:47;;;;;;;15.15;7.53;;;;;;;;;;5080732;28;20342;-71
2023/11/20 09:44:13;;;;;;;12.43;5.60;;;;;;;;;;5080789;28;20024;-70
2023/11/20 09:46:46;;;;;;;12.52;5.63;;;10.40;99.90;;;;;;5080854;28;20074;-71
2023/11/20 09:49:22;;;;;;;11.23;4.90;;;10.50;99.90;;;;;;5080855;28;20273;-70
2023/11/20 09:51:49;;;;;;;8.27;4.50;;;10.20;99.90;;;;;;5080686;28;20044;-71
2023/11/20 09:54:16;;;;;;;8.57;2.42;;;10.60;99.90;;;;;;5080634;28;20021;-71
2023/11/20 09:56:43;;;;;;;5.53;1.90;;;10.60;99.90;;;;;;5080858;28;20024;-70
2023/11/20 09:59:12;;;;;;;3.85;2.08;;;10.80;99.90;;;;;;5080551;28;20036;-71
2023/11/20 10:01:43;;;;;;;4.00;1.40;;;11.00;99.90;;;;;;5080715;28;20032;-70
2023/11/20 10:04:09;;;;;;;4.07;1.45;;;;;;;;;;5079817;28;20012;-71
2023/11/20 10:06:35;;;;;;;11.15;1.40;;;11.00;99.00;;;;;;5080587;28;20103;-71
2023/11/20 10:09:03;;;;;;;4.63;1.20;;;10.90;99.60;;;;;;5080382;28;20316;-73
2023/11/20 10:11:33;;;;;;;6.60;1.17;;;11.30;97.90;;;;;;5080431;28;20344;-72
2023/11/20 10:13:59;;;;;;;2.83;1.58;;;;;;;;;;5080373;28;20404;-72
2023/11/20 10:16:26;;;;;;;4.68;1.25;;;11.50;99.30;;;;;;5080295;28;20082;-72
2023/11/20 10:18:52;;;;;;;4.50;1.15;;;11.80;99.90;;;;;;5080648;28;20016;-71
2023/11/20 10:21:22;;;;;;;3.28;1.00;;;11.70;96.30;;;;;;5080271;28;20190;-70
2023/11/20 10:23:52;;;;;;;4.70;1.00;;;11.90;99.50;;;;;;5080545;28;20039;-70
2023/11/20 10:26:18;;;;;;;5.70;1.20;;;;;;;;;;5080134;28;20052;-70
2023/11/20 10:28:45;;;;;;;3.45;1.20;;;12.00;93.10;;;;;;5080268;28;20368;-70
2023/11/20 10:31:11;;;;;;;6.70;1.52;;;;;;;;;;5078927;28;20232;-70
2023/11/20 10:33:37;;;;;;;7.25;1.20;;;12.00;97.20;;;;;;5080066;28;20100;-71
2023/11/20 10:36:16;;;;;;;1.00;0.60;;;12.10;91.30;;;;;;5080093;28;20065;-71
2023/11/20 10:38:43;;;;;;;2.67;0.95;;;12.20;96.50;;;;;;5083685;28;20020;-71
2023/11/20 10:41:10;;;;;;;3.15;1.23;;;;;;;;;;5084334;28;20025;-70
2023/11/20 10:43:37;;;;;;;5.80;1.40;;;12.60;94.80;;;;;;5083904;28;20082;-71
2023/11/20 10:46:05;;;;;;;6.88;1.10;;;12.20;94.40;;;;;;5084199;28;20021;-71
2023/11/20 10:48:37;;;;;;;2.47;0.75;;;12.30;93.60;;;;;;5083751;28;20371;-70
2023/11/20 10:51:07;;;;;;;2.55;0.45;;;12.70;93.20;;;;;;5083932;28;20060;-70
2023/11/20 10:53:37;;;;;;;3.25;0.90;;;12.40;93.40;;;;;;5080633;28;20021;-73
2023/11/20 10:56:05;;;;;;;5.07;1.13;;;12.20;93.70;;;;;;5082903;28;20032;-71
2023/11/20 10:58:31;;;;;;;4.00;0.80;;;12.50;93.90;;;;;;5082797;28;20321;-70
2023/11/20 11:01:01;;;;;;;4.43;1.00;;;12.10;94.20;;;;;;5083772;28;20020;-70
2023/11/20 11:03:32;;;;;;;7.03;1.08;;;12.10;94.80;;;;;;5084036;28;20012;-70
2023/11/20 11:06:03;;;;;;;4.75;1.23;;;12.00;95.10;;;;;;5083958;28;20023;-71
2023/11/20 11:08:31;;;;;;;7.40;1.15;;;12.30;95.80;;;;;;5081190;28;20088;-71
2023/11/20 11:10:57;;;;;;;3.15;1.00;;;11.90;95.60;;;;;;5083427;28;20028;-71
2023/11/20 11:13:29;;;;;;;4.68;1.42;;;12.10;95.90;;;;;;5083572;28;20017;-70
2023/11/20 11:15:57;;;;;;;4.43;1.85;;;12.00;90.30;;;;;;5083350;28;20028;-70
2023/11/20 11:18:28;;;;;;;3.97;1.15;;;11.80;95.20;;;;;;5083323;28;20016;-71
2023/11/20 11:20:55;;;;;;;5.50;1.48;;;12.00;95.30;;;;;;5083274;28;20347;-71
2023/11/20 11:23:46;;;;;;;4.65;1.50;;;11.90;89.60;;;;;;5083525;28;20406;-71
2023/11/20 11:26:12;;;;;;;6.57;1.77;;;;;;;;;;5083136;28;20059;-70
2023/11/20 11:28:42;;;;;;;9.90;1.73;;;11.90;95.30;;;;;;5083078;28;20091;-72
2023/11/20 11:31:09;;;;;;;10.82;1.73;;;11.90;95.50;;;;;;5083099;28;20336;-71
2023/11/20 11:33:48;;;;;;;11.13;2.45;;;11.60;89.90;;;;;;5082965;28;20016;-70
2023/11/20 11:36:14;;;;;;;5.28;1.77;;;;;;;;;;5082901;28;20012;-71
2023/11/20 11:39:03;;;;;;;9.57;1.90;;;11.70;90.00;;;;;;5083014;28;20059;-71
2023/11/20 11:42:04;;;;;;;6.55;2.13;;;11.60;90.70;;;;;;5082959;28;20088;-71
2023/11/20 11:44:32;;;;;;;7.32;2.08;;;;;;;;;;5077498;28;20099;-71
2023/11/20 11:46:58;;;;;;;4.35;1.38;;;11.80;95.60;;;;;;5082734;28;20021;-71
2023/11/20 11:49:23;;;;;;;6.70;1.80;;;11.80;94.80;;;;;;5079070;28;20035;-71
2023/11/20 11:51:56;;;;;;;5.93;2.17;;;11.90;92.90;;;;;;5082561;28;20229;-71
2023/11/20 11:54:24;;;;;;;6.18;1.45;;;12.00;94.10;;;;;;5081148;28;20020;-71
2023/11/20 11:56:50;;;;;;;5.78;1.45;;;11.90;93.80;;;;;;5081267;28;20078;-70
2023/11/20 11:59:37;;;;;;;2.90;1.00;;;12.10;88.00;;;;;;5082315;28;20139;-71
2023/11/20 12:02:03;;;;;;;4.45;1.70;;;12.50;94.10;;;;;;5082417;28;20048;-71
2023/11/20 12:04:56;;;;;;;5.13;1.33;;;12.30;84.80;;;;;;5082404;28;20031;-71
2023/11/20 12:07:40;;;;;;;3.03;1.50;;;12.40;84.40;;;;;;5082612;28;20036;-71
2023/11/20 12:10:13;;;;;;;3.13;1.17;;;12.40;84.80;;;;;;5068319;28;20036;-71
2023/11/20 12:12:48;;;;;;;7.15;1.90;;;12.40;84.90;;;;;;5062209;28;20049;-71
2023/11/20 12:15:37;;;;;;;5.97;1.90;;;12.50;93.40;;;;;;5062020;28;20051;-71
2023/11/20 12:18:14;;;;;;;5.03;1.60;;;12.10;86.40;;;;;;5062065;28;20016;-71
2023/11/20 12:21:04;;;;;;;7.53;1.42;;;12.20;93.00;;;;;;5061991;28;20020;-71
2023/11/20 12:23:30;;;;;;;6.63;1.65;;;12.30;84.50;;;;;;5061730;28;20195;-70
2023/11/20 12:26:00;;;;;;;6.22;1.23;;;12.40;84.20;;;;;;5061567;28;20272;-71
2023/11/20 12:28:29;;;;;;;6.75;2.33;;;12.50;92.50;;;;;;5061992;28;20047;-71
2023/11/20 12:30:55;;;;;;;3.13;1.20;;;;;;;;;;5061831;28;20032;-70
2023/11/20 12:33:23;;;;;;;6.32;1.85;;;12.40;92.40;;;;;;5061693;28;20100;-71
2023/11/20 12:35:55;;;;;;;5.90;1.88;;;12.40;92.20;;;;;;5080589;28;20374;-71
2023/11/20 12:38:22;;;;;;;3.47;1.20;;;12.30;83.00;;;;;;5081696;28;20020;-71
2023/11/20 12:40:49;;;;;;;8.50;1.52;;;12.40;82.40;;;;;;5081640;28;20028;-71
2023/11/20 12:43:17;;;;;;;6.32;1.48;;;12.50;91.20;;;;;;5081739;28;20017;-70
2023/11/20 12:45:44;;;;;;;2.90;1.60;;;;;;;;;;5081458;28;20039;-71
2023/11/20 12:48:10;;;;;;;4.28;1.40;;;12.40;91.50;;;;;;5081676;28;20070;-70
2023/11/20 12:50:37;;;;;;;3.83;1.70;;;;;;;;;;5080136;28;20083;-71
2023/11/20 12:53:03;;;;;;;5.15;1.75;;;12.30;91.50;;;;;;5081427;28;20028;-71
2023/11/20 12:55:29;;;;;;;5.15;2.30;;;;;;;;;;5078178;28;20114;-71
2023/11/20 12:57:55;;;;;;;5.72;1.60;;;;;;;;;;5081627;28;20032;-71
2023/11/20 13:00:23;;;;;;;3.17;1.48;;;12.70;91.10;;;;;;5081014;28;20020;-70
2023/11/20 13:02:58;;;;;;;4.37;1.23;;;12.60;80.00;;;;;;5081362;28;20031;-71
2023/11/20 13:05:27;;;;;;;4.53;1.45;;;13.00;85.60;;;;;;5081320;28;20036;-70
2023/11/20 13:07:56;;;;;;;;;;;12.70;80.30;;;;;;5081747;28;20043;-71
2023/11/20 13:10:24;;;;;;;3.13;1.42;;;12.90;79.10;;;;;;5080748;28;19944;-70
2023/11/20 13:12:50;;;;;;;6.00;1.67;;;12.80;84.80;;;;;;5080957;28;20095;-71
2023/11/20 13:15:25;;;;;;;2.13;1.08;;;13.00;90.20;;;;;;5081310;28;20048;-70